Air Navigation Services of Czech Republic  
Last data update:  25.03.2019 21:48:07 UTC Česká verze
   METEO Page displayed:  25.03.2019 21:48:20 UTC  
help
METAR EDDB 252120Z 34007KT CAVOK 04/01 Q1021 NOSIG=
METAR EDDC 252120Z 28005KT 250V310 9999 FEW032 02/02 Q1021=
METAR EDDE 252120Z 28008KT 9999 FEW046 02/00 Q1023=
METAR EDDF 252120Z 28006KT 9999 FEW029 04/02 Q1026 NOSIG=
METAR EDDM 252120Z 26009KT 9999 SCT030 BKN046 03/01 Q1023 NOSIG=
METAR EDDN 252120Z 33014KT 9999 -SHRA FEW012 FEW020TCU BKN043 03/01 Q1023=
METAR EDDP 252120Z 29007KT 9999 BKN023 BKN034 04/02 Q1022 NOSIG=
METAR EDDT 252120Z 32004KT 290V360 CAVOK 04/01 Q1021 NOSIG=
METAR EDQM NIL
METAR EPBY 252130Z 32006KT CAVOK 02/01 Q1017=
METAR EPGD 252130Z 34010KT 9999 FEW006 BKN027 02/01 Q1016=
METAR EPKK 252130Z 28007KT 240V310 9999 BKN030 04/M00 Q1015=
METAR EPKT 252130Z 28010KT 9999 SCT017 BKN024 03/M01 Q1015=
METAR EPLL 252130Z 30005KT 8000 -RA SCT006 BKN007 OVC008 03/02 Q1015 =
METAR EPPO 252130Z 33006KT 9999 BKN040 03/02 Q1018=
METAR EPRZ 252130Z 27007KT 6000 SCT039 03/02 Q1013=
METAR EPWA 252130Z 30004KT CAVOK M00/M01 Q1014 NOSIG=
METAR EPWR 252130Z 30014KT 9999 -SHRA SCT018CB BKN023 03/02 Q1019=
METAR LHBP 252130Z 31016KT CAVOK 07/M02 Q1015 NOSIG=
METAR LHSM NIL
SPECI LKBC 252143Z AUTO 29010KT 9999 FEW013 OVC019 02/00 Q1019=
METAR LKCV 252100Z 31011KT 9999 FEW020 OVC035 04/02 Q1019 NOSIG RMK BLU BLU=
METAR LKKB 252100Z 31009KT 280V340 9999 FEW030 BKN060 04/M01 Q1020 RMK BLU=
METAR LKKU NIL
METAR LKKV 252100Z 31007KT 9999 BKN023 00/M02 Q1020 RMK REG QNH 1014=
METAR LKLN 252130Z AUTO 28004KT 240V320 9999 SCT048 BKN074 02/00 Q1022=
METAR LKMT 252130Z VRB01KT 9999 SCT028 BKN045 02/M01 Q1017 NOSIG RMK REG QNH 1014=
METAR LKNA 252100Z 31016KT CAVOK 02/M01 Q1016 RMK BLU=
METAR COR LKPD 252100Z 28008KT CAVOK 04/00 Q1019 RMK BLU=
METAR LKPJ 252100Z AUTO 35005KT 320V030 CAVOK 02/M01 Q1017=
METAR LKPR 252130Z 32010KT 9999 SCT016 BKN038 03/M00 Q1020 NOSIG RMK REG QNH 1014=
METAR LKTB 252130Z 28006KT 9999 FEW034 03/M01 Q1018 NOSIG RMK REG QNH 1014=
METAR LKVO NIL
METAR LOWI 252120Z 33003KT 280V020 9999 FEW010 SCT040 BKN070 02/M00 Q1022 NOSIG=
METAR LOWL 252120Z AUTO 30013KT 9999 FEW018 BKN022 BKN038 03/00 Q1020 NOSIG=
METAR LOWS 252120Z 31008KT 9999 FEW007 SCT035 BKN050 02/00 Q1022 NOSIG=
METAR LOWW 252120Z 31012KT 9999 FEW045 SCT055 BKN170 06/M00 Q1018 NOSIG=
METAR LZIB 252130Z 32007KT CAVOK 06/M01 Q1018=
METAR LZKZ 252130Z 34009KT CAVOK 06/M02 Q1014=
METAR LZMC 252100Z 02002KT CAVOK 03/M02 Q1019=
METAR LZPP 252130Z AUTO 02005KT 9999 OVC190/// 04/M01 Q1017=
METAR LZSL 252130Z 35009KT 9999 SCT052 05/M03 Q1015=
METAR LZTT 252130Z 18003KT 150V210 9999 -SHSN SCT036 BKN050 01/M01 Q1013=
METAR LZZI 252130Z 12004KT 060V170 9999 BKN047 03/M02 Q1016=